sensor_id;sensor_type;location;lat;lon;timestamp;P1;durP1;ratioP1;P2;durP2;ratioP2
64197;SDS011;50512;53.666;9.700;2023-07-13T00:02:15;8.43;;;5.43;;
64197;SDS011;50512;53.666;9.700;2023-07-13T00:04:42;8.73;;;5.28;;
64197;SDS011;50512;53.666;9.700;2023-07-13T00:07:08;11.85;;;5.68;;
64197;SDS011;50512;53.666;9.700;2023-07-13T00:09:35;9.32;;;5.43;;
64197;SDS011;50512;53.666;9.700;2023-07-13T00:12:01;9.95;;;5.38;;
64197;SDS011;50512;53.666;9.700;2023-07-13T00:14:28;10.30;;;5.60;;
64197;SDS011;50512;53.666;9.700;2023-07-13T00:16:55;10.18;;;5.65;;
64197;SDS011;50512;53.666;9.700;2023-07-13T00:19:23;9.75;;;5.22;;
64197;SDS011;50512;53.666;9.700;2023-07-13T00:21:50;12.05;;;5.90;;
64197;SDS011;50512;53.666;9.700;2023-07-13T00:24:20;9.35;;;5.95;;
64197;SDS011;50512;53.666;9.700;2023-07-13T00:26:48;10.30;;;5.60;;
64197;SDS011;50512;53.666;9.700;2023-07-13T00:29:15;9.07;;;5.30;;
64197;SDS011;50512;53.666;9.700;2023-07-13T00:31:41;12.38;;;6.00;;
64197;SDS011;50512;53.666;9.700;2023-07-13T00:34:08;12.02;;;5.88;;
64197;SDS011;50512;53.666;9.700;2023-07-13T00:36:36;9.07;;;5.82;;
64197;SDS011;50512;53.666;9.700;2023-07-13T00:39:03;13.55;;;5.93;;
64197;SDS011;50512;53.666;9.700;2023-07-13T00:41:30;11.35;;;5.60;;
64197;SDS011;50512;53.666;9.700;2023-07-13T00:43:56;11.38;;;5.88;;
64197;SDS011;50512;53.666;9.700;2023-07-13T00:46:24;13.35;;;6.45;;
64197;SDS011;50512;53.666;9.700;2023-07-13T00:48:53;11.43;;;6.22;;
64197;SDS011;50512;53.666;9.700;2023-07-13T00:51:22;10.75;;;6.32;;
64197;SDS011;50512;53.666;9.700;2023-07-13T00:53:54;12.85;;;6.40;;
64197;SDS011;50512;53.666;9.700;2023-07-13T00:56:24;14.50;;;7.38;;
64197;SDS011;50512;53.666;9.700;2023-07-13T00:58:51;13.52;;;7.00;;
64197;SDS011;50512;53.666;9.700;2023-07-13T01:01:19;12.00;;;7.32;;
64197;SDS011;50512;53.666;9.700;2023-07-13T01:03:46;14.35;;;7.88;;
64197;SDS011;50512;53.666;9.700;2023-07-13T01:06:12;13.60;;;7.75;;
64197;SDS011;50512;53.666;9.700;2023-07-13T01:08:39;13.43;;;8.18;;
64197;SDS011;50512;53.666;9.700;2023-07-13T01:11:07;16.63;;;7.68;;
64197;SDS011;50512;53.666;9.700;2023-07-13T01:13:34;15.98;;;7.72;;
64197;SDS011;50512;53.666;9.700;2023-07-13T01:16:02;15.35;;;8.50;;
64197;SDS011;50512;53.666;9.700;2023-07-13T01:18:33;19.85;;;9.30;;
64197;SDS011;50512;53.666;9.700;2023-07-13T01:21:02;15.40;;;8.05;;
64197;SDS011;50512;53.666;9.700;2023-07-13T01:23:31;14.00;;;8.10;;
64197;SDS011;50512;53.666;9.700;2023-07-13T01:25:59;19.83;;;9.25;;
64197;SDS011;50512;53.666;9.700;2023-07-13T01:28:26;15.40;;;8.50;;
64197;SDS011;50512;53.666;9.700;2023-07-13T01:30:54;14.90;;;9.38;;
64197;SDS011;50512;53.666;9.700;2023-07-13T01:33:22;18.50;;;9.90;;
64197;SDS011;50512;53.666;9.700;2023-07-13T01:35:49;21.30;;;9.43;;
64197;SDS011;50512;53.666;9.700;2023-07-13T01:38:17;18.00;;;9.93;;
64197;SDS011;50512;53.666;9.700;2023-07-13T01:40:46;20.55;;;9.95;;
64197;SDS011;50512;53.666;9.700;2023-07-13T01:43:30;18.58;;;10.05;;
64197;SDS011;50512;53.666;9.700;2023-07-13T01:45:57;19.02;;;9.88;;
64197;SDS011;50512;53.666;9.700;2023-07-13T01:48:24;17.00;;;9.85;;
64197;SDS011;50512;53.666;9.700;2023-07-13T01:50:50;17.40;;;11.00;;
64197;SDS011;50512;53.666;9.700;2023-07-13T01:53:18;20.55;;;10.13;;
64197;SDS011;50512;53.666;9.700;2023-07-13T01:55:44;16.45;;;10.63;;
64197;SDS011;50512;53.666;9.700;2023-07-13T01:58:11;22.33;;;10.95;;
64197;SDS011;50512;53.666;9.700;2023-07-13T02:00:37;19.10;;;11.77;;
64197;SDS011;50512;53.666;9.700;2023-07-13T02:03:04;16.98;;;11.02;;
64197;SDS011;50512;53.666;9.700;2023-07-13T02:05:30;18.88;;;10.57;;
64197;SDS011;50512;53.666;9.700;2023-07-13T02:07:57;16.73;;;11.07;;
64197;SDS011;50512;53.666;9.700;2023-07-13T02:10:25;22.55;;;12.07;;
64197;SDS011;50512;53.666;9.700;2023-07-13T02:12:53;19.23;;;12.15;;
64197;SDS011;50512;53.666;9.700;2023-07-13T02:15:20;21.45;;;11.65;;
64197;SDS011;50512;53.666;9.700;2023-07-13T02:17:46;18.67;;;11.73;;
64197;SDS011;50512;53.666;9.700;2023-07-13T02:20:12;20.27;;;10.98;;
64197;SDS011;50512;53.666;9.700;2023-07-13T02:22:39;20.27;;;11.25;;
64197;SDS011;50512;53.666;9.700;2023-07-13T02:25:06;20.23;;;11.50;;
64197;SDS011;50512;53.666;9.700;2023-07-13T02:27:34;18.70;;;10.93;;
64197;SDS011;50512;53.666;9.700;2023-07-13T02:30:00;26.38;;;11.63;;
64197;SDS011;50512;53.666;9.700;2023-07-13T02:32:27;20.77;;;11.73;;
64197;SDS011;50512;53.666;9.700;2023-07-13T02:34:54;18.88;;;10.45;;
64197;SDS011;50512;53.666;9.700;2023-07-13T02:37:20;21.00;;;12.07;;
64197;SDS011;50512;53.666;9.700;2023-07-13T02:39:47;20.08;;;12.15;;
64197;SDS011;50512;53.666;9.700;2023-07-13T02:42:13;21.77;;;11.77;;
64197;SDS011;50512;53.666;9.700;2023-07-13T02:44:41;23.10;;;12.23;;
64197;SDS011;50512;53.666;9.700;2023-07-13T02:47:08;21.63;;;12.10;;
64197;SDS011;50512;53.666;9.700;2023-07-13T02:49:34;17.70;;;11.68;;
64197;SDS011;50512;53.666;9.700;2023-07-13T02:52:01;19.63;;;12.30;;
64197;SDS011;50512;53.666;9.700;2023-07-13T02:54:28;19.52;;;11.27;;
64197;SDS011;50512;53.666;9.700;2023-07-13T02:56:55;17.75;;;11.60;;
64197;SDS011;50512;53.666;9.700;2023-07-13T02:59:21;20.05;;;11.27;;
64197;SDS011;50512;53.666;9.700;2023-07-13T03:01:49;19.02;;;10.73;;
64197;SDS011;50512;53.666;9.700;2023-07-13T03:04:15;23.02;;;12.00;;
64197;SDS011;50512;53.666;9.700;2023-07-13T03:06:44;19.77;;;10.95;;
64197;SDS011;50512;53.666;9.700;2023-07-13T03:09:11;17.75;;;10.65;;
64197;SDS011;50512;53.666;9.700;2023-07-13T03:11:38;20.50;;;11.07;;
64197;SDS011;50512;53.666;9.700;2023-07-13T03:14:04;19.10;;;11.93;;
64197;SDS011;50512;53.666;9.700;2023-07-13T03:16:31;17.15;;;10.68;;
64197;SDS011;50512;53.666;9.700;2023-07-13T03:18:58;19.00;;;12.02;;
64197;SDS011;50512;53.666;9.700;2023-07-13T03:21:25;21.00;;;11.40;;
64197;SDS011;50512;53.666;9.700;2023-07-13T03:23:51;18.05;;;10.38;;
64197;SDS011;50512;53.666;9.700;2023-07-13T03:26:18;16.42;;;9.82;;
64197;SDS011;50512;53.666;9.700;2023-07-13T03:28:46;17.00;;;9.85;;
64197;SDS011;50512;53.666;9.700;2023-07-13T03:31:14;17.05;;;8.60;;
64197;SDS011;50512;53.666;9.700;2023-07-13T03:33:42;15.55;;;10.25;;
64197;SDS011;50512;53.666;9.700;2023-07-13T03:36:12;16.17;;;9.07;;
64197;SDS011;50512;53.666;9.700;2023-07-13T03:38:41;17.80;;;9.32;;
64197;SDS011;50512;53.666;9.700;2023-07-13T03:41:07;13.60;;;8.75;;
64197;SDS011;50512;53.666;9.700;2023-07-13T03:43:34;14.00;;;8.35;;
64197;SDS011;50512;53.666;9.700;2023-07-13T03:46:00;15.65;;;8.73;;
64197;SDS011;50512;53.666;9.700;2023-07-13T03:48:27;11.77;;;7.63;;
64197;SDS011;50512;53.666;9.700;2023-07-13T03:50:53;12.55;;;7.60;;
64197;SDS011;50512;53.666;9.700;2023-07-13T03:53:21;20.00;;;7.20;;
64197;SDS011;50512;53.666;9.700;2023-07-13T03:55:47;13.02;;;7.47;;
64197;SDS011;50512;53.666;9.700;2023-07-13T03:58:24;16.52;;;8.05;;
64197;SDS011;50512;53.666;9.700;2023-07-13T04:00:58;15.80;;;7.30;;
64197;SDS011;50512;53.666;9.700;2023-07-13T04:03:26;12.98;;;7.30;;
64197;SDS011;50512;53.666;9.700;2023-07-13T04:05:54;12.05;;;7.50;;
64197;SDS011;50512;53.666;9.700;2023-07-13T04:08:25;13.05;;;6.65;;
64197;SDS011;50512;53.666;9.700;2023-07-13T04:10:53;13.85;;;8.02;;
64197;SDS011;50512;53.666;9.700;2023-07-13T04:13:19;15.40;;;7.43;;
64197;SDS011;50512;53.666;9.700;2023-07-13T04:15:46;12.75;;;7.55;;
64197;SDS011;50512;53.666;9.700;2023-07-13T04:18:12;13.93;;;7.07;;
64197;SDS011;50512;53.666;9.700;2023-07-13T04:20:38;16.02;;;7.00;;
64197;SDS011;50512;53.666;9.700;2023-07-13T04:23:05;11.60;;;6.90;;
64197;SDS011;50512;53.666;9.700;2023-07-13T04:25:39;14.57;;;8.07;;
64197;SDS011;50512;53.666;9.700;2023-07-13T04:28:09;12.18;;;6.65;;
64197;SDS011;50512;53.666;9.700;2023-07-13T04:30:35;17.02;;;7.78;;
64197;SDS011;50512;53.666;9.700;2023-07-13T04:33:02;10.32;;;6.53;;
64197;SDS011;50512;53.666;9.700;2023-07-13T04:35:29;15.00;;;7.60;;
64197;SDS011;50512;53.666;9.700;2023-07-13T04:37:56;17.23;;;7.00;;
64197;SDS011;50512;53.666;9.700;2023-07-13T04:40:23;15.35;;;7.18;;
64197;SDS011;50512;53.666;9.700;2023-07-13T04:42:51;13.82;;;6.93;;
64197;SDS011;50512;53.666;9.700;2023-07-13T04:45:17;13.05;;;7.15;;
64197;SDS011;50512;53.666;9.700;2023-07-13T04:47:44;16.83;;;7.35;;
64197;SDS011;50512;53.666;9.700;2023-07-13T04:50:12;11.73;;;6.75;;
64197;SDS011;50512;53.666;9.700;2023-07-13T04:52:40;15.02;;;7.50;;
64197;SDS011;50512;53.666;9.700;2023-07-13T04:55:07;13.30;;;7.28;;
64197;SDS011;50512;53.666;9.700;2023-07-13T04:57:34;16.77;;;7.55;;
64197;SDS011;50512;53.666;9.700;2023-07-13T05:00:02;13.77;;;6.13;;
64197;SDS011;50512;53.666;9.700;2023-07-13T05:02:32;12.50;;;6.78;;
64197;SDS011;50512;53.666;9.700;2023-07-13T05:04:58;12.13;;;6.40;;
64197;SDS011;50512;53.666;9.700;2023-07-13T05:07:25;15.98;;;7.85;;
64197;SDS011;50512;53.666;9.700;2023-07-13T05:09:52;17.25;;;7.85;;
64197;SDS011;50512;53.666;9.700;2023-07-13T05:12:19;17.10;;;7.97;;
64197;SDS011;50512;53.666;9.700;2023-07-13T05:14:45;16.48;;;6.65;;
64197;SDS011;50512;53.666;9.700;2023-07-13T05:17:15;13.82;;;7.10;;
64197;SDS011;50512;53.666;9.700;2023-07-13T05:19:41;13.52;;;6.95;;
64197;SDS011;50512;53.666;9.700;2023-07-13T05:22:08;12.30;;;6.43;;
64197;SDS011;50512;53.666;9.700;2023-07-13T05:24:35;12.00;;;6.78;;
64197;SDS011;50512;53.666;9.700;2023-07-13T05:27:02;12.85;;;6.88;;
64197;SDS011;50512;53.666;9.700;2023-07-13T05:29:28;12.13;;;6.25;;
64197;SDS011;50512;53.666;9.700;2023-07-13T05:31:55;12.85;;;7.53;;
64197;SDS011;50512;53.666;9.700;2023-07-13T05:34:23;15.80;;;6.50;;
64197;SDS011;50512;53.666;9.700;2023-07-13T05:36:50;21.42;;;7.10;;
64197;SDS011;50512;53.666;9.700;2023-07-13T05:39:17;11.70;;;5.80;;
64197;SDS011;50512;53.666;9.700;2023-07-13T05:41:44;15.70;;;6.70;;
64197;SDS011;50512;53.666;9.700;2023-07-13T05:44:10;14.82;;;6.03;;
64197;SDS011;50512;53.666;9.700;2023-07-13T05:46:37;13.85;;;5.57;;
64197;SDS011;50512;53.666;9.700;2023-07-13T05:49:03;14.27;;;5.93;;
64197;SDS011;50512;53.666;9.700;2023-07-13T05:51:31;13.48;;;5.55;;
64197;SDS011;50512;53.666;9.700;2023-07-13T05:53:57;13.75;;;6.07;;
64197;SDS011;50512;53.666;9.700;2023-07-13T05:56:24;9.80;;;5.32;;
64197;SDS011;50512;53.666;9.700;2023-07-13T05:58:51;7.68;;;4.72;;
64197;SDS011;50512;53.666;9.700;2023-07-13T06:01:18;14.43;;;5.80;;
64197;SDS011;50512;53.666;9.700;2023-07-13T06:03:45;10.95;;;5.15;;
64197;SDS011;50512;53.666;9.700;2023-07-13T06:06:12;9.48;;;4.68;;
64197;SDS011;50512;53.666;9.700;2023-07-13T06:08:40;12.90;;;6.13;;
64197;SDS011;50512;53.666;9.700;2023-07-13T06:11:07;9.98;;;5.00;;
64197;SDS011;50512;53.666;9.700;2023-07-13T06:13:35;11.48;;;4.28;;
64197;SDS011;50512;53.666;9.700;2023-07-13T06:16:02;11.13;;;4.65;;
64197;SDS011;50512;53.666;9.700;2023-07-13T06:18:30;13.70;;;5.28;;
64197;SDS011;50512;53.666;9.700;2023-07-13T06:20:57;16.52;;;5.45;;
64197;SDS011;50512;53.666;9.700;2023-07-13T06:23:23;15.55;;;5.53;;
64197;SDS011;50512;53.666;9.700;2023-07-13T06:25:52;14.30;;;5.40;;
64197;SDS011;50512;53.666;9.700;2023-07-13T06:28:18;9.88;;;4.45;;
64197;SDS011;50512;53.666;9.700;2023-07-13T06:30:44;10.18;;;3.65;;
64197;SDS011;50512;53.666;9.700;2023-07-13T06:33:11;10.07;;;4.30;;
64197;SDS011;50512;53.666;9.700;2023-07-13T06:35:37;12.98;;;4.93;;
64197;SDS011;50512;53.666;9.700;2023-07-13T06:38:04;12.48;;;5.20;;
64197;SDS011;50512;53.666;9.700;2023-07-13T06:40:31;14.32;;;4.82;;
64197;SDS011;50512;53.666;9.700;2023-07-13T06:42:58;12.27;;;4.15;;
64197;SDS011;50512;53.666;9.700;2023-07-13T06:45:25;11.63;;;3.95;;
64197;SDS011;50512;53.666;9.700;2023-07-13T06:47:51;8.95;;;3.97;;
64197;SDS011;50512;53.666;9.700;2023-07-13T06:50:18;15.85;;;5.65;;
64197;SDS011;50512;53.666;9.700;2023-07-13T06:52:44;9.88;;;3.40;;
64197;SDS011;50512;53.666;9.700;2023-07-13T06:55:11;20.25;;;4.60;;
64197;SDS011;50512;53.666;9.700;2023-07-13T06:57:37;12.23;;;4.03;;
64197;SDS011;50512;53.666;9.700;2023-07-13T07:00:06;12.82;;;4.38;;
64197;SDS011;50512;53.666;9.700;2023-07-13T07:02:34;9.05;;;3.75;;
64197;SDS011;50512;53.666;9.700;2023-07-13T07:05:01;9.27;;;3.60;;
64197;SDS011;50512;53.666;9.700;2023-07-13T07:07:27;15.85;;;3.60;;
64197;SDS011;50512;53.666;9.700;2023-07-13T07:09:54;9.10;;;3.35;;
64197;SDS011;50512;53.666;9.700;2023-07-13T07:12:20;14.52;;;4.10;;
64197;SDS011;50512;53.666;9.700;2023-07-13T07:14:47;12.95;;;3.70;;
64197;SDS011;50512;53.666;9.700;2023-07-13T07:17:15;11.20;;;3.72;;
64197;SDS011;50512;53.666;9.700;2023-07-13T07:19:41;7.78;;;3.47;;
64197;SDS011;50512;53.666;9.700;2023-07-13T07:22:07;11.10;;;4.05;;
64197;SDS011;50512;53.666;9.700;2023-07-13T07:24:34;14.27;;;4.10;;
64197;SDS011;50512;53.666;9.700;2023-07-13T07:27:00;8.85;;;3.33;;
64197;SDS011;50512;53.666;9.700;2023-07-13T07:29:27;12.18;;;3.70;;
64197;SDS011;50512;53.666;9.700;2023-07-13T07:31:53;9.43;;;3.70;;
64197;SDS011;50512;53.666;9.700;2023-07-13T07:34:21;11.65;;;3.90;;
64197;SDS011;50512;53.666;9.700;2023-07-13T07:36:48;11.48;;;3.50;;
64197;SDS011;50512;53.666;9.700;2023-07-13T07:39:14;13.00;;;3.60;;
64197;SDS011;50512;53.666;9.700;2023-07-13T07:41:41;11.10;;;3.80;;
64197;SDS011;50512;53.666;9.700;2023-07-13T07:44:08;12.38;;;3.50;;
64197;SDS011;50512;53.666;9.700;2023-07-13T07:46:34;9.93;;;3.35;;
64197;SDS011;50512;53.666;9.700;2023-07-13T07:49:01;10.52;;;3.58;;
64197;SDS011;50512;53.666;9.700;2023-07-13T07:51:29;8.93;;;3.45;;
64197;SDS011;50512;53.666;9.700;2023-07-13T07:53:55;10.38;;;2.90;;
64197;SDS011;50512;53.666;9.700;2023-07-13T07:56:22;11.98;;;3.92;;
64197;SDS011;50512;53.666;9.700;2023-07-13T07:58:48;10.52;;;3.40;;
64197;SDS011;50512;53.666;9.700;2023-07-13T08:01:15;7.88;;;3.70;;
64197;SDS011;50512;53.666;9.700;2023-07-13T08:03:42;13.05;;;3.72;;
64197;SDS011;50512;53.666;9.700;2023-07-13T08:06:08;11.35;;;3.35;;
64197;SDS011;50512;53.666;9.700;2023-07-13T08:08:36;12.52;;;3.58;;
64197;SDS011;50512;53.666;9.700;2023-07-13T08:11:03;11.48;;;3.80;;
64197;SDS011;50512;53.666;9.700;2023-07-13T08:13:31;9.60;;;4.10;;
64197;SDS011;50512;53.666;9.700;2023-07-13T08:15:57;6.85;;;2.95;;
64197;SDS011;50512;53.666;9.700;2023-07-13T08:18:23;9.02;;;2.70;;
64197;SDS011;50512;53.666;9.700;2023-07-13T08:20:50;8.15;;;2.88;;
64197;SDS011;50512;53.666;9.700;2023-07-13T08:23:17;12.52;;;3.30;;
64197;SDS011;50512;53.666;9.700;2023-07-13T08:25:51;11.23;;;3.13;;
64197;SDS011;50512;53.666;9.700;2023-07-13T08:28:18;9.15;;;3.22;;
64197;SDS011;50512;53.666;9.700;2023-07-13T08:30:45;9.02;;;3.33;;
64197;SDS011;50512;53.666;9.700;2023-07-13T08:33:13;7.13;;;2.72;;
64197;SDS011;50512;53.666;9.700;2023-07-13T08:35:40;10.25;;;3.38;;
64197;SDS011;50512;53.666;9.700;2023-07-13T08:38:11;14.52;;;3.60;;
64197;SDS011;50512;53.666;9.700;2023-07-13T08:40:38;9.82;;;4.35;;
64197;SDS011;50512;53.666;9.700;2023-07-13T08:43:09;9.50;;;2.50;;
64197;SDS011;50512;53.666;9.700;2023-07-13T08:45:42;9.50;;;2.88;;
64197;SDS011;50512;53.666;9.700;2023-07-13T08:48:11;9.60;;;3.78;;
64197;SDS011;50512;53.666;9.700;2023-07-13T08:50:46;12.43;;;3.03;;
64197;SDS011;50512;53.666;9.700;2023-07-13T08:53:15;8.27;;;2.97;;
64197;SDS011;50512;53.666;9.700;2023-07-13T08:55:43;9.45;;;2.88;;
64197;SDS011;50512;53.666;9.700;2023-07-13T08:58:11;11.90;;;3.65;;
64197;SDS011;50512;53.666;9.700;2023-07-13T09:00:42;10.32;;;3.30;;
64197;SDS011;50512;53.666;9.700;2023-07-13T09:03:16;8.32;;;3.03;;
64197;SDS011;50512;53.666;9.700;2023-07-13T09:05:49;6.45;;;3.30;;
64197;SDS011;50512;53.666;9.700;2023-07-13T09:08:27;9.85;;;3.15;;
64197;SDS011;50512;53.666;9.700;2023-07-13T09:11:05;10.00;;;2.95;;
64197;SDS011;50512;53.666;9.700;2023-07-13T09:13:43;8.10;;;3.15;;
64197;SDS011;50512;53.666;9.700;2023-07-13T09:16:16;8.93;;;3.17;;
64197;SDS011;50512;53.666;9.700;2023-07-13T09:18:44;10.82;;;3.50;;
64197;SDS011;50512;53.666;9.700;2023-07-13T09:21:14;11.85;;;3.90;;
64197;SDS011;50512;53.666;9.700;2023-07-13T09:23:42;11.13;;;3.58;;
64197;SDS011;50512;53.666;9.700;2023-07-13T09:26:11;12.18;;;3.22;;
64197;SDS011;50512;53.666;9.700;2023-07-13T09:28:41;9.77;;;3.85;;
64197;SDS011;50512;53.666;9.700;2023-07-13T09:31:11;7.80;;;2.70;;
64197;SDS011;50512;53.666;9.700;2023-07-13T09:33:40;7.85;;;2.75;;
64197;SDS011;50512;53.666;9.700;2023-07-13T09:36:16;6.88;;;2.78;;
64197;SDS011;50512;53.666;9.700;2023-07-13T09:38:45;11.52;;;3.90;;
64197;SDS011;50512;53.666;9.700;2023-07-13T09:41:15;11.43;;;3.85;;
64197;SDS011;50512;53.666;9.700;2023-07-13T09:46:36;9.27;;;2.97;;
64197;SDS011;50512;53.666;9.700;2023-07-13T09:49:02;6.57;;;3.22;;
64197;SDS011;50512;53.666;9.700;2023-07-13T09:51:29;6.95;;;2.83;;
64197;SDS011;50512;53.666;9.700;2023-07-13T09:53:55;8.82;;;2.83;;
64197;SDS011;50512;53.666;9.700;2023-07-13T09:56:23;6.53;;;2.35;;
64197;SDS011;50512;53.666;9.700;2023-07-13T09:58:52;9.00;;;3.42;;
64197;SDS011;50512;53.666;9.700;2023-07-13T10:01:32;9.35;;;2.45;;
64197;SDS011;50512;53.666;9.700;2023-07-13T10:03:59;6.45;;;2.50;;
64197;SDS011;50512;53.666;9.700;2023-07-13T10:06:26;7.15;;;2.67;;
64197;SDS011;50512;53.666;9.700;2023-07-13T10:08:55;8.32;;;3.10;;
64197;SDS011;50512;53.666;9.700;2023-07-13T10:11:23;7.72;;;3.58;;
64197;SDS011;50512;53.666;9.700;2023-07-13T10:13:54;9.43;;;2.38;;
64197;SDS011;50512;53.666;9.700;2023-07-13T10:16:22;6.38;;;2.30;;
64197;SDS011;50512;53.666;9.700;2023-07-13T10:18:53;7.75;;;3.10;;
64197;SDS011;50512;53.666;9.700;2023-07-13T10:21:28;7.32;;;2.80;;
64197;SDS011;50512;53.666;9.700;2023-07-13T10:24:00;7.93;;;2.70;;
64197;SDS011;50512;53.666;9.700;2023-07-13T10:26:33;5.88;;;2.40;;
64197;SDS011;50512;53.666;9.700;2023-07-13T10:29:01;10.98;;;2.95;;
64197;SDS011;50512;53.666;9.700;2023-07-13T10:31:33;7.20;;;2.50;;
64197;SDS011;50512;53.666;9.700;2023-07-13T10:34:02;9.20;;;2.70;;
64197;SDS011;50512;53.666;9.700;2023-07-13T10:36:31;5.45;;;2.65;;
64197;SDS011;50512;53.666;9.700;2023-07-13T10:39:04;7.63;;;2.88;;
64197;SDS011;50512;53.666;9.700;2023-07-13T10:41:33;11.35;;;3.08;;
64197;SDS011;50512;53.666;9.700;2023-07-13T10:44:04;6.40;;;2.83;;
64197;SDS011;50512;53.666;9.700;2023-07-13T10:46:35;8.25;;;3.22;;
64197;SDS011;50512;53.666;9.700;2023-07-13T10:49:05;7.22;;;2.78;;
64197;SDS011;50512;53.666;9.700;2023-07-13T10:51:33;6.25;;;2.20;;
64197;SDS011;50512;53.666;9.700;2023-07-13T10:54:15;5.75;;;2.40;;
64197;SDS011;50512;53.666;9.700;2023-07-13T10:56:44;8.82;;;3.17;;
64197;SDS011;50512;53.666;9.700;2023-07-13T10:59:12;9.75;;;2.60;;
64197;SDS011;50512;53.666;9.700;2023-07-13T11:04:40;8.27;;;1.75;;
64197;SDS011;50512;53.666;9.700;2023-07-13T11:07:10;8.73;;;2.67;;
64197;SDS011;50512;53.666;9.700;2023-07-13T11:09:43;7.18;;;2.03;;
64197;SDS011;50512;53.666;9.700;2023-07-13T11:12:28;7.85;;;2.20;;
64197;SDS011;50512;53.666;9.700;2023-07-13T11:15:11;3.60;;;1.52;;
64197;SDS011;50512;53.666;9.700;2023-07-13T11:17:46;5.72;;;2.08;;
64197;SDS011;50512;53.666;9.700;2023-07-13T11:20:32;8.68;;;1.95;;
64197;SDS011;50512;53.666;9.700;2023-07-13T11:23:08;4.90;;;1.30;;
64197;SDS011;50512;53.666;9.700;2023-07-13T11:25:45;5.38;;;1.55;;
64197;SDS011;50512;53.666;9.700;2023-07-13T11:28:15;4.10;;;1.90;;
64197;SDS011;50512;53.666;9.700;2023-07-13T11:30:46;6.85;;;1.90;;
64197;SDS011;50512;53.666;9.700;2023-07-13T11:33:15;8.27;;;1.90;;
64197;SDS011;50512;53.666;9.700;2023-07-13T11:35:53;7.20;;;1.90;;
64197;SDS011;50512;53.666;9.700;2023-07-13T11:38:28;5.10;;;1.63;;
64197;SDS011;50512;53.666;9.700;2023-07-13T11:40:58;4.88;;;2.10;;
64197;SDS011;50512;53.666;9.700;2023-07-13T11:43:28;8.07;;;2.00;;
64197;SDS011;50512;53.666;9.700;2023-07-13T11:45:54;12.35;;;2.85;;
64197;SDS011;50512;53.666;9.700;2023-07-13T11:48:22;11.45;;;2.13;;
64197;SDS011;50512;53.666;9.700;2023-07-13T11:50:55;6.50;;;2.00;;
64197;SDS011;50512;53.666;9.700;2023-07-13T11:53:26;7.63;;;2.60;;
64197;SDS011;50512;53.666;9.700;2023-07-13T11:55:55;7.40;;;2.75;;
64197;SDS011;50512;53.666;9.700;2023-07-13T11:58:23;6.55;;;2.55;;
64197;SDS011;50512;53.666;9.700;2023-07-13T12:00:53;6.90;;;2.95;;
64197;SDS011;50512;53.666;9.700;2023-07-13T12:03:22;10.32;;;3.05;;
64197;SDS011;50512;53.666;9.700;2023-07-13T12:05:58;9.30;;;2.88;;
64197;SDS011;50512;53.666;9.700;2023-07-13T12:08:26;9.88;;;3.25;;
64197;SDS011;50512;53.666;9.700;2023-07-13T12:10:57;8.38;;;3.20;;
64197;SDS011;50512;53.666;9.700;2023-07-13T12:13:26;8.82;;;3.75;;
64197;SDS011;50512;53.666;9.700;2023-07-13T12:15:53;6.65;;;3.25;;
64197;SDS011;50512;53.666;9.700;2023-07-13T12:18:21;7.63;;;2.78;;
64197;SDS011;50512;53.666;9.700;2023-07-13T12:20:50;6.30;;;3.47;;
64197;SDS011;50512;53.666;9.700;2023-07-13T12:23:22;5.43;;;2.38;;
64197;SDS011;50512;53.666;9.700;2023-07-13T12:25:51;4.32;;;2.20;;
64197;SDS011;50512;53.666;9.700;2023-07-13T12:28:21;4.75;;;2.40;;
64197;SDS011;50512;53.666;9.700;2023-07-13T12:30:57;4.78;;;2.30;;
64197;SDS011;50512;53.666;9.700;2023-07-13T12:33:27;9.73;;;2.33;;
64197;SDS011;50512;53.666;9.700;2023-07-13T12:35:54;6.38;;;2.33;;
64197;SDS011;50512;53.666;9.700;2023-07-13T12:38:24;6.10;;;2.22;;
64197;SDS011;50512;53.666;9.700;2023-07-13T12:40:51;7.53;;;2.50;;
64197;SDS011;50512;53.666;9.700;2023-07-13T12:43:19;4.35;;;2.33;;
64197;SDS011;50512;53.666;9.700;2023-07-13T12:45:57;5.30;;;2.13;;
64197;SDS011;50512;53.666;9.700;2023-07-13T12:48:24;8.40;;;2.42;;
64197;SDS011;50512;53.666;9.700;2023-07-13T12:50:51;5.10;;;2.55;;
64197;SDS011;50512;53.666;9.700;2023-07-13T12:53:21;6.20;;;2.38;;
64197;SDS011;50512;53.666;9.700;2023-07-13T12:55:55;7.80;;;2.33;;
64197;SDS011;50512;53.666;9.700;2023-07-13T12:58:25;6.55;;;2.28;;
64197;SDS011;50512;53.666;9.700;2023-07-13T13:00:53;5.93;;;2.17;;
64197;SDS011;50512;53.666;9.700;2023-07-13T13:03:22;6.25;;;2.88;;
64197;SDS011;50512;53.666;9.700;2023-07-13T13:05:58;6.05;;;3.10;;
64197;SDS011;50512;53.666;9.700;2023-07-13T13:08:29;5.43;;;2.63;;
64197;SDS011;50512;53.666;9.700;2023-07-13T13:10:56;6.10;;;2.30;;
64197;SDS011;50512;53.666;9.700;2023-07-13T13:13:23;7.10;;;2.63;;
64197;SDS011;50512;53.666;9.700;2023-07-13T13:15:49;4.78;;;2.28;;
64197;SDS011;50512;53.666;9.700;2023-07-13T13:18:17;4.65;;;2.20;;
64197;SDS011;50512;53.666;9.700;2023-07-13T13:20:45;6.45;;;2.90;;
64197;SDS011;50512;53.666;9.700;2023-07-13T13:23:12;2.72;;;1.92;;
64197;SDS011;50512;53.666;9.700;2023-07-13T13:25:43;6.07;;;2.60;;
64197;SDS011;50512;53.666;9.700;2023-07-13T13:28:15;8.25;;;3.38;;
64197;SDS011;50512;53.666;9.700;2023-07-13T13:30:42;5.85;;;2.40;;
64197;SDS011;50512;53.666;9.700;2023-07-13T13:33:09;4.40;;;2.75;;
64197;SDS011;50512;53.666;9.700;2023-07-13T13:35:37;5.68;;;2.20;;
64197;SDS011;50512;53.666;9.700;2023-07-13T13:38:04;5.07;;;2.15;;
64197;SDS011;50512;53.666;9.700;2023-07-13T13:40:36;8.88;;;2.63;;
64197;SDS011;50512;53.666;9.700;2023-07-13T13:43:07;7.70;;;2.90;;
64197;SDS011;50512;53.666;9.700;2023-07-13T13:45:40;3.95;;;2.20;;
64197;SDS011;50512;53.666;9.700;2023-07-13T13:48:07;8.50;;;3.53;;
64197;SDS011;50512;53.666;9.700;2023-07-13T13:50:37;6.35;;;2.70;;
64197;SDS011;50512;53.666;9.700;2023-07-13T13:53:03;5.43;;;2.60;;
64197;SDS011;50512;53.666;9.700;2023-07-13T13:55:30;4.00;;;2.50;;
64197;SDS011;50512;53.666;9.700;2023-07-13T13:57:56;5.40;;;2.80;;
64197;SDS011;50512;53.666;9.700;2023-07-13T14:00:24;4.13;;;2.10;;
64197;SDS011;50512;53.666;9.700;2023-07-13T14:02:50;5.63;;;2.35;;
64197;SDS011;50512;53.666;9.700;2023-07-13T14:05:20;7.15;;;2.67;;
64197;SDS011;50512;53.666;9.700;2023-07-13T14:07:47;4.55;;;2.47;;
64197;SDS011;50512;53.666;9.700;2023-07-13T14:10:15;6.63;;;2.65;;
64197;SDS011;50512;53.666;9.700;2023-07-13T14:12:43;5.47;;;2.70;;
64197;SDS011;50512;53.666;9.700;2023-07-13T14:15:13;6.38;;;2.75;;
64197;SDS011;50512;53.666;9.700;2023-07-13T14:17:44;4.78;;;2.78;;
64197;SDS011;50512;53.666;9.700;2023-07-13T14:20:11;6.68;;;2.75;;
64197;SDS011;50512;53.666;9.700;2023-07-13T14:22:39;4.75;;;2.90;;
64197;SDS011;50512;53.666;9.700;2023-07-13T14:25:10;6.50;;;2.63;;
64197;SDS011;50512;53.666;9.700;2023-07-13T14:27:37;6.45;;;2.92;;
64197;SDS011;50512;53.666;9.700;2023-07-13T14:30:04;4.50;;;2.50;;
64197;SDS011;50512;53.666;9.700;2023-07-13T14:32:35;5.38;;;2.58;;
64197;SDS011;50512;53.666;9.700;2023-07-13T14:35:03;3.88;;;2.28;;
64197;SDS011;50512;53.666;9.700;2023-07-13T14:37:30;5.40;;;2.30;;
64197;SDS011;50512;53.666;9.700;2023-07-13T14:39:56;4.00;;;2.00;;
64197;SDS011;50512;53.666;9.700;2023-07-13T14:42:23;6.55;;;2.35;;
64197;SDS011;50512;53.666;9.700;2023-07-13T14:44:49;2.92;;;2.20;;
64197;SDS011;50512;53.666;9.700;2023-07-13T14:47:16;6.82;;;2.20;;
64197;SDS011;50512;53.666;9.700;2023-07-13T14:49:44;7.03;;;2.80;;
64197;SDS011;50512;53.666;9.700;2023-07-13T14:52:14;3.92;;;2.45;;